Time;durP1;ratioP1;P1;durP2;ratioP2;P2;SDS_P1;SDS_P2;PMS_P1;PMS_P2;Temp;Humidity;BMP_temperature;BMP_pressure;BME280_temperature;BME280_humidity;BME280_pressure;Samples;Min_cycle;Max_cycle;Signal;HPM_P1;HPM_P2
2023/05/09 00:02:06;;;;;;;23.23;19.50;;;;;;;14.42;100.00;155063.88;4974125;28;20460;-76
2023/05/09 00:04:34;;;;;;;24.27;20.67;;;;;;;14.36;100.00;155049.59;4961209;28;20440;-77
2023/05/09 00:07:02;;;;;;;24.53;20.70;;;;;;;14.30;100.00;155032.63;4953948;28;20490;-76
2023/05/09 00:09:28;;;;;;;29.40;22.50;;;;;;;14.27;100.00;155026.13;4955051;28;20479;-76
2023/05/09 00:11:55;;;;;;;25.27;22.40;;;;;;;14.21;100.00;155010.59;4954629;28;20468;-76
2023/05/09 00:14:23;;;;;;;26.03;21.47;;;;;;;14.18;100.00;155001.50;4971843;28;20483;-76
2023/05/09 00:16:50;;;;;;;26.20;22.67;;;;;;;14.11;100.00;154984.59;4950172;28;20465;-76
2023/05/09 00:19:16;;;;;;;24.97;22.27;;;;;;;14.07;100.00;154974.22;4968225;28;20463;-76
2023/05/09 00:21:43;;;;;;;25.03;21.10;;;;;;;14.07;100.00;154972.91;4966940;28;20520;-76
2023/05/09 00:24:11;;;;;;;28.80;23.50;;;;;;;14.03;100.00;154963.84;4954561;28;20489;-76
2023/05/09 00:26:37;;;;;;;28.00;21.87;;;;;;;14.03;100.00;154963.84;4968232;28;20465;-76
2023/05/09 00:29:04;;;;;;;25.20;21.23;;;;;;;14.03;100.00;154965.13;4953826;28;20492;-76
2023/05/09 00:31:30;;;;;;;25.40;21.17;;;;;;;14.01;100.00;154958.63;4955548;28;20962;-76
2023/05/09 00:33:57;;;;;;;27.60;22.30;;;;;;;13.97;100.00;154948.25;4936406;28;20487;-76
2023/05/09 00:36:23;;;;;;;26.80;22.00;;;;;;;13.90;100.00;154930.06;4945537;29;20560;-76
2023/05/09 00:38:50;;;;;;;27.50;21.23;;;;;;;13.85;100.00;154918.38;4952426;28;20438;-76
2023/05/09 00:41:18;;;;;;;25.73;19.80;;;;;;;13.80;100.00;154905.41;4971427;28;20432;-76
2023/05/09 00:43:44;;;;;;;27.10;22.30;;;;;;;13.76;100.00;154895.06;4969586;28;20485;-76
2023/05/09 00:46:11;;;;;;;28.57;22.50;;;;;;;13.74;100.00;154888.56;4952878;28;20459;-76
2023/05/09 00:48:38;;;;;;;24.67;21.93;;;;;;;13.74;100.00;154888.56;4973984;28;20459;-76
2023/05/09 00:51:05;;;;;;;23.40;20.43;;;;;;;13.75;100.00;154891.13;4939250;28;20474;-76
2023/05/09 00:53:31;;;;;;;26.50;21.10;;;;;;;13.73;100.00;154887.25;4968849;28;20484;-75
2023/05/09 00:56:00;;;;;;;24.60;20.20;;;;;;;13.73;100.00;154887.25;4972018;28;20438;-75
2023/05/09 00:58:28;;;;;;;23.87;21.10;;;;;;;13.73;100.00;154887.25;4948928;28;20461;-75
2023/05/09 01:00:54;;;;;;;24.07;20.93;;;;;;;13.70;100.00;154878.16;4985691;28;20451;-75
2023/05/09 01:03:21;;;;;;;23.70;19.30;;;;;;;13.64;100.00;154863.88;4955719;28;20459;-75
2023/05/09 01:05:55;;;;;;;24.07;20.70;;;;;;;13.58;100.00;154847.03;4971554;28;20468;-76
2023/05/09 01:08:31;;;;;;;28.33;22.33;;;;;;;13.53;100.00;154835.31;4972664;28;20494;-76
2023/05/09 01:11:01;;;;;;;25.80;20.60;;;;;;;13.54;100.00;154836.63;4933246;28;21020;-76
2023/05/09 01:13:32;;;;;;;25.47;20.87;;;;;;;13.52;100.00;154832.75;4949688;28;21092;-76
2023/05/09 01:16:05;;;;;;;25.73;21.17;;;;;;;13.53;100.00;154834.06;4972095;28;20443;-76
2023/05/09 01:18:38;;;;;;;27.27;22.07;;;;;;;13.49;100.00;154824.94;4969969;28;20466;-76
2023/05/09 01:21:07;;;;;;;26.90;21.97;;;;;;;13.45;100.00;154813.28;4952046;28;20462;-76
2023/05/09 01:23:56;;;;;;;24.23;20.13;;;;;;;13.40;100.00;154802.88;4953894;28;21063;-76
2023/05/09 01:26:26;;;;;;;26.00;20.60;;;;;;;13.35;100.00;154789.91;4953707;28;20443;-76
2023/05/09 01:29:28;;;;;;;23.53;18.80;;;;;;;13.31;100.00;154778.25;4952151;28;20486;-76
2023/05/09 01:31:57;;;;;;;24.87;18.97;;;;;;;13.30;100.00;154776.94;4924113;29;20452;-76
2023/05/09 01:34:26;;;;;;;24.37;19.90;;;;;;;13.28;100.00;154771.75;4969000;28;20958;-76
2023/05/09 01:36:56;;;;;;;28.57;22.13;;;;;;;13.28;100.00;154771.75;4952918;28;20463;-76
2023/05/09 01:39:24;;;;;;;25.20;21.03;;;;;;;13.27;100.00;154769.13;4956433;28;20450;-76
2023/05/09 01:41:52;;;;;;;28.70;21.83;;;;;;;13.26;100.00;154765.28;4969049;28;20465;-76
2023/05/09 01:44:20;;;;;;;29.60;22.40;;;;;;;13.24;100.00;154761.34;4954258;28;20506;-76
2023/05/09 01:46:47;;;;;;;27.73;20.27;;;;;;;13.23;100.00;154758.78;4951647;28;20470;-76
2023/05/09 01:49:16;;;;;;;30.20;23.07;;;;;;;13.20;100.00;154751.00;4970634;28;20454;-76
2023/05/09 01:51:44;;;;;;;26.90;21.67;;;;;;;13.23;100.00;154757.47;4972089;28;20934;-76
2023/05/09 01:54:12;;;;;;;28.90;22.00;;;;;;;13.20;100.00;154749.69;4938424;28;20572;-76
2023/05/09 01:56:40;;;;;;;28.40;21.60;;;;;;;13.19;100.00;154748.38;4953074;28;20463;-75
2023/05/09 01:59:07;;;;;;;29.77;23.13;;;;;;;13.22;100.00;154754.88;4969139;28;20563;-76
2023/05/09 02:01:34;;;;;;;25.10;21.70;;;;;;;13.19;100.00;154748.38;4935900;28;20459;-76
2023/05/09 02:04:02;;;;;;;27.37;20.93;;;;;;;13.13;100.00;154731.53;4952899;28;20510;-76
2023/05/09 02:06:30;;;;;;;24.10;20.83;;;;;;;13.14;100.00;154734.09;4952500;28;20505;-75
2023/05/09 02:08:57;;;;;;;25.47;20.60;;;;;;;13.13;100.00;154732.78;4970469;28;20465;-76
2023/05/09 02:11:25;;;;;;;32.40;24.03;;;;;;;13.12;100.00;154728.94;4953214;28;20465;-75
2023/05/09 02:13:52;;;;;;;24.33;21.70;;;;;;;13.11;100.00;154727.63;4951395;28;21160;-75
2023/05/09 02:16:19;;;;;;;25.73;21.07;;;;;;;13.10;100.00;154725.06;4940328;28;20458;-75
2023/05/09 02:18:46;;;;;;;25.17;20.20;;;;;;;13.07;100.00;154717.25;4951805;28;20466;-75
2023/05/09 02:21:12;;;;;;;23.90;20.63;;;;;;;13.05;100.00;154712.00;4961654;28;20446;-74
2023/05/09 02:23:40;;;;;;;27.27;20.53;;;;;;;13.07;100.00;154717.25;4968002;28;20461;-75
2023/05/09 02:26:07;;;;;;;31.00;21.30;;;;;;;13.09;100.00;154722.44;4951874;28;20455;-75
2023/05/09 02:28:34;;;;;;;26.70;21.90;;;;;;;13.10;100.00;154725.06;4950729;28;20468;-76
2023/05/09 02:31:02;;;;;;;30.80;24.03;;;;;;;13.12;100.00;154730.22;4962950;28;20454;-75
2023/05/09 02:33:29;;;;;;;28.23;23.17;;;;;;;13.12;100.00;154728.94;4948460;29;20882;-75
2023/05/09 02:35:56;;;;;;;30.37;22.90;;;;;;;13.14;100.00;154735.41;4933318;29;20799;-75
2023/05/09 02:38:23;;;;;;;28.90;23.97;;;;;;;13.15;100.00;154738.03;4943661;28;20465;-75
2023/05/09 02:40:51;;;;;;;27.90;22.93;;;;;;;13.15;100.00;154736.72;4947271;29;20467;-75
2023/05/09 02:43:18;;;;;;;30.00;22.83;;;;;;;13.16;100.00;154740.59;4964948;28;20462;-75
2023/05/09 02:45:44;;;;;;;28.23;22.90;;;;;;;13.18;100.00;154745.81;4967422;28;20503;-76
2023/05/09 02:48:11;;;;;;;28.83;23.27;;;;;;;13.21;100.00;154752.31;4948218;29;20459;-75
2023/05/09 02:50:40;;;;;;;26.00;21.93;;;;;;;13.20;100.00;154751.00;4932178;28;20581;-75
2023/05/09 02:53:07;;;;;;;30.67;21.60;;;;;;;13.19;100.00;154748.38;4969405;28;20466;-75
2023/05/09 02:55:33;;;;;;;32.50;24.37;;;;;;;13.21;100.00;154752.31;4951870;28;20477;-75
2023/05/09 02:58:01;;;;;;;31.47;22.90;;;;;;;13.23;100.00;154758.78;4949040;28;20977;-75
2023/05/09 03:00:31;;;;;;;27.70;22.90;;;;;;;13.23;100.00;154757.47;4956222;28;20937;-75
2023/05/09 03:02:58;;;;;;;30.57;20.63;;;;;;;13.19;100.00;154748.38;4968512;28;20918;-75
2023/05/09 03:05:25;;;;;;;26.43;21.43;;;;;;;13.20;100.00;154751.00;4952615;28;20977;-76
2023/05/09 03:07:52;;;;;;;28.47;22.67;;;;;;;13.17;100.00;154743.22;4950950;28;20980;-76
2023/05/09 03:10:18;;;;;;;27.70;22.87;;;;;;;13.18;100.00;154744.50;4915386;28;1044256;-76
2023/05/09 03:12:45;;;;;;;29.43;21.97;;;;;;;13.11;100.00;154727.63;4953249;28;20497;-75
2023/05/09 03:15:13;;;;;;;29.33;23.50;;;;;;;13.09;100.00;154722.44;4936834;28;20506;-77
2023/05/09 03:17:45;;;;;;;27.97;22.10;;;;;;;13.11;100.00;154726.31;4934315;28;20469;-75
2023/05/09 03:20:12;;;;;;;23.60;19.50;;;;;;;13.12;100.00;154730.22;4936352;28;20455;-75
2023/05/09 03:22:38;;;;;;;26.03;21.10;;;;;;;13.13;100.00;154732.78;4953040;28;20511;-75
2023/05/09 03:25:08;;;;;;;27.33;21.57;;;;;;;13.08;100.00;154719.81;4950718;28;20454;-75
2023/05/09 03:27:35;;;;;;;28.40;22.20;;;;;;;13.06;100.00;154714.59;4950347;28;20463;-75
2023/05/09 03:30:03;;;;;;;30.30;21.90;;;;;;;13.05;100.00;154712.00;4935273;28;20451;-75
2023/05/09 03:32:31;;;;;;;28.97;21.97;;;;;;;13.05;100.00;154712.00;4970462;28;20450;-75
2023/05/09 03:34:57;;;;;;;29.17;23.40;;;;;;;13.01;100.00;154701.63;4967102;28;20476;-75
2023/05/09 03:37:25;;;;;;;29.07;22.40;;;;;;;12.99;100.00;154696.47;4950794;28;20465;-75
2023/05/09 03:39:51;;;;;;;25.57;20.60;;;;;;;12.98;100.00;154692.53;4938987;28;20528;-75
2023/05/09 03:42:18;;;;;;;26.57;22.80;;;;;;;12.98;100.00;154692.53;4970395;28;20489;-75
2023/05/09 03:44:47;;;;;;;28.10;22.70;;;;;;;12.95;100.00;154684.75;4950188;28;20533;-75
2023/05/09 03:47:14;;;;;;;30.73;21.80;;;;;;;12.92;100.00;154677.00;4954716;28;20459;-74
2023/05/09 03:49:42;;;;;;;29.80;24.27;;;;;;;12.93;100.00;154680.88;4930356;28;20450;-74
2023/05/09 03:52:11;;;;;;;31.17;23.07;;;;;;;12.93;100.00;154680.88;4950734;28;20517;-75
2023/05/09 03:54:38;;;;;;;31.17;23.63;;;;;;;12.95;100.00;154686.06;4954003;28;21356;-75
2023/05/09 03:57:05;;;;;;;31.23;23.60;;;;;;;12.96;100.00;154688.66;4984516;28;20472;-75
2023/05/09 03:59:32;;;;;;;25.53;20.40;;;;;;;12.95;100.00;154686.06;4961953;28;20446;-75
2023/05/09 04:01:59;;;;;;;28.47;22.40;;;;;;;12.96;100.00;154688.66;4955567;28;20875;-75
2023/05/09 04:04:27;;;;;;;28.07;21.77;;;;;;;12.92;100.00;154677.00;4940991;29;20455;-76
2023/05/09 04:06:55;;;;;;;25.03;20.57;;;;;;;12.87;100.00;154665.28;4942669;28;20450;-75
2023/05/09 04:09:22;;;;;;;25.90;20.93;;;;;;;12.87;100.00;154664.03;4955234;28;20529;-76
2023/05/09 04:11:49;;;;;;;25.50;22.00;;;;;;;12.80;100.00;154648.47;4953802;28;20466;-75
2023/05/09 04:14:15;;;;;;;29.17;21.87;;;;;;;12.80;100.00;154647.16;4954970;28;20451;-75
2023/05/09 04:16:42;;;;;;;26.67;20.50;;;;;;;12.77;100.00;154639.38;4956372;28;20493;-76
2023/05/09 04:19:09;;;;;;;29.57;23.00;;;;;;;12.75;100.00;154634.19;4953294;28;20459;-75
2023/05/09 04:21:36;;;;;;;27.47;20.70;;;;;;;12.78;100.00;154641.97;4954271;28;20469;-76
2023/05/09 04:24:06;;;;;;;27.93;21.83;;;;;;;12.78;100.00;154643.28;4938762;28;20478;-75
2023/05/09 04:26:38;;;;;;;31.27;25.00;;;;;;;12.80;100.00;154647.16;4955946;28;20454;-76
2023/05/09 04:29:07;;;;;;;28.73;23.37;;;;;;;12.78;100.00;154641.97;4938269;28;20481;-75
2023/05/09 04:31:34;;;;;;;27.80;21.90;;;;;;;12.78;100.00;154643.28;4933023;29;20570;-75
2023/05/09 04:34:02;;;;;;;30.37;23.53;;;;;;;12.80;100.00;154647.16;4939947;29;20472;-75
2023/05/09 04:36:32;;;;;;;26.60;22.57;;;;;;;12.83;100.00;154656.25;4953991;28;20995;-76
2023/05/09 04:38:59;;;;;;;29.30;23.07;;;;;;;12.87;100.00;154665.28;4942937;28;20985;-75
2023/05/09 04:41:28;;;;;;;29.07;23.30;;;;;;;12.89;100.00;154669.22;4952025;28;20461;-75
2023/05/09 04:43:55;;;;;;;27.73;21.70;;;;;;;12.92;100.00;154677.00;4962556;28;20620;-75
2023/05/09 04:46:24;;;;;;;27.03;22.53;;;;;;;12.94;100.00;154683.50;4953412;28;20870;-76
2023/05/09 04:48:51;;;;;;;29.30;22.00;;;;;;;12.95;100.00;154686.06;4961817;28;20493;-75
2023/05/09 04:51:21;;;;;;;25.67;21.30;;;;;;;13.00;100.00;154699.03;4955011;28;20466;-75
2023/05/09 04:53:47;;;;;;;34.53;25.17;;;;;;;13.04;100.00;154709.44;4952202;28;20462;-76
2023/05/09 04:56:16;;;;;;;28.27;21.03;;;;;;;13.09;100.00;154722.44;4940909;28;20536;-76
2023/05/09 04:59:01;;;;;;;27.00;20.50;;;;;;;13.15;100.00;154738.03;4942613;28;20532;-76
2023/05/09 05:01:29;;;;;;;29.43;22.87;;;;;;;13.19;100.00;154748.38;4940551;28;20465;-75
2023/05/09 05:03:56;;;;;;;26.40;22.50;;;;;;;13.24;100.00;154761.34;4929816;28;20451;-76
2023/05/09 05:06:23;;;;;;;28.30;21.17;;;;;;;13.32;100.00;154782.13;4946496;28;20895;-76
2023/05/09 05:08:50;;;;;;;26.43;22.70;;;;;;;13.42;100.00;154808.06;4959282;28;20458;-76
2023/05/09 05:11:17;;;;;;;28.97;22.50;;;;;;;13.55;100.00;154839.22;4935060;28;20465;-75
2023/05/09 05:13:44;;;;;;;29.13;23.40;;;;;;;13.57;100.00;154845.72;4955121;28;20541;-75
2023/05/09 05:16:12;;;;;;;29.40;22.60;;;;;;;13.63;100.00;154860.00;4968706;28;20525;-75
2023/05/09 05:18:39;;;;;;;28.47;21.27;;;;;;;13.56;100.00;154841.78;4951107;28;20466;-75
2023/05/09 05:21:06;;;;;;;23.50;20.83;;;;;;;13.52;100.00;154832.75;4932348;28;20545;-75
2023/05/09 05:23:33;;;;;;;26.50;21.70;;;;;;;13.64;100.00;154863.88;4937003;28;20601;-75
2023/05/09 05:25:59;;;;;;;27.60;20.83;;;;;;;13.92;100.00;154936.59;4968866;28;20452;-75
2023/05/09 05:28:29;;;;;;;26.70;21.57;;;;;;;14.07;100.00;154972.91;4953858;28;20554;-75
2023/05/09 05:30:56;;;;;;;26.93;20.37;;;;;;;14.15;100.00;154993.69;4952213;28;20466;-75
2023/05/09 05:33:24;;;;;;;26.33;22.43;;;;;;;14.24;100.00;155018.38;4952480;28;20469;-77
2023/05/09 05:35:51;;;;;;;25.10;19.90;;;;;;;14.22;100.00;155011.84;4937541;28;20486;-76
2023/05/09 05:38:17;;;;;;;28.00;20.80;;;;;;;14.20;100.00;155007.97;4933738;28;20503;-75
2023/05/09 05:40:48;;;;;;;25.07;19.90;;;;;;;14.09;100.00;154979.41;4931711;28;20457;-75
2023/05/09 05:43:16;;;;;;;26.93;21.33;;;;;;;14.03;100.00;154965.13;4934844;28;20831;-75
2023/05/09 05:45:43;;;;;;;24.50;20.07;;;;;;;14.08;100.00;154976.84;4950216;28;20971;-76
2023/05/09 05:48:15;;;;;;;24.50;18.80;;;;;;;14.04;100.00;154966.41;4966132;28;20458;-76
2023/05/09 05:50:43;;;;;;;24.07;19.27;;;;;;;14.08;100.00;154976.84;4966698;28;20459;-76
2023/05/09 05:53:10;;;;;;;23.87;19.60;;;;;;;14.09;100.00;154979.41;4928599;29;20492;-76
2023/05/09 05:55:37;;;;;;;24.83;19.73;;;;;;;14.14;100.00;154992.38;4956306;28;20478;-75
2023/05/09 05:58:04;;;;;;;22.97;19.47;;;;;;;14.15;100.00;154995.00;4961432;28;20489;-76
2023/05/09 06:00:31;;;;;;;23.63;20.20;;;;;;;14.15;100.00;154995.00;4945946;29;20884;-75
2023/05/09 06:03:03;;;;;;;25.33;19.10;;;;;;;14.11;100.00;154984.59;4931183;29;20473;-77
2023/05/09 06:05:54;;;;;;;25.50;20.70;;;;;;;14.09;100.00;154979.41;4933675;29;20681;-76
2023/05/09 06:08:21;;;;;;;26.60;21.20;;;;;;;14.14;100.00;154992.38;4921869;28;20456;-75
2023/05/09 06:10:47;;;;;;;24.77;19.87;;;;;;;14.23;100.00;155015.78;4918000;29;20491;-75
2023/05/09 06:13:14;;;;;;;27.53;20.90;;;;;;;14.41;100.00;155062.56;4917314;29;20456;-75
2023/05/09 06:15:45;;;;;;;28.03;21.53;;;;;;;14.56;100.00;155100.25;4915058;29;20560;-75
2023/05/09 06:18:12;;;;;;;23.80;19.90;;;;;;;14.74;100.00;155145.69;4930957;29;20605;-75
2023/05/09 06:20:38;;;;;;;24.53;19.20;;;;;;;14.99;100.00;155210.63;4940275;29;20461;-76
2023/05/09 06:23:06;;;;;;;25.83;20.90;;;;;;;15.25;100.00;155278.19;4910659;29;20518;-75
2023/05/09 06:25:33;;;;;;;24.83;20.50;;;;;;;15.52;100.00;155348.44;4945348;28;20454;-76
2023/05/09 06:27:59;;;;;;;23.87;19.77;;;;;;;15.75;100.00;155408.22;4942254;29;20466;-76
2023/05/09 06:30:26;;;;;;;23.60;18.77;;;;;;;15.98;100.00;155465.44;4942364;29;20461;-76
2023/05/09 06:32:52;;;;;;;23.17;19.90;;;;;;;16.08;100.00;155492.75;4931214;29;20463;-76
2023/05/09 06:35:19;;;;;;;22.17;18.53;;;;;;;16.15;100.00;155509.66;4931332;29;20993;-77
2023/05/09 06:37:45;;;;;;;22.03;17.80;;;;;;;16.26;100.00;155538.25;4930571;29;20469;-76
2023/05/09 06:40:13;;;;;;;20.67;17.00;;;;;;;16.37;100.00;155566.84;4945284;28;20469;-76
2023/05/09 06:42:40;;;;;;;19.40;17.13;;;;;;;16.44;100.00;155586.38;4938304;28;20573;-77
2023/05/09 06:45:09;;;;;;;21.63;18.63;;;;;;;16.62;100.00;155631.97;4952921;28;20458;-76
2023/05/09 06:47:35;;;;;;;19.27;16.90;;;;;;;16.68;100.00;155647.53;4947523;28;20463;-77
2023/05/09 06:50:02;;;;;;;20.10;18.00;;;;;;;16.80;100.00;155678.78;4953791;28;20463;-77
2023/05/09 06:52:29;;;;;;;21.73;17.97;;;;;;;16.92;100.00;155710.00;4941101;28;20464;-77
2023/05/09 06:54:55;;;;;;;20.50;17.10;;;;;;;17.04;100.00;155741.25;4946435;29;20900;-77
2023/05/09 06:57:23;;;;;;;20.33;17.40;;;;;;;17.18;100.00;155775.09;4929720;29;20515;-77
2023/05/09 06:59:49;;;;;;;19.17;17.10;;;;;;;17.25;97.82;155793.28;4951826;28;20966;-77
2023/05/09 07:02:16;;;;;;;20.37;18.27;;;;;;;17.42;96.46;155837.56;4934071;29;20871;-77
2023/05/09 07:04:43;;;;;;;19.63;17.47;;;;;;;17.35;94.63;155819.31;4932891;29;20580;-77
2023/05/09 07:07:09;;;;;;;21.57;17.67;;;;;;;17.43;93.91;155841.44;4929565;29;20850;-76
2023/05/09 07:09:36;;;;;;;19.07;16.67;;;;;;;17.56;93.94;155875.34;4928117;29;20483;-76
2023/05/09 07:12:03;;;;;;;20.93;18.47;;;;;;;17.38;91.91;155828.44;4950335;28;20486;-76
2023/05/09 07:14:31;;;;;;;24.30;18.77;;;;;;;17.41;91.44;155836.25;4928305;29;20860;-76
2023/05/09 07:16:59;;;;;;;18.47;16.47;;;;;;;17.54;92.67;155868.84;4945437;28;20844;-76
2023/05/09 07:19:26;;;;;;;20.50;18.10;;;;;;;17.83;93.56;155944.34;4927694;29;20457;-77
2023/05/09 07:21:52;;;;;;;19.87;17.80;;;;;;;18.16;89.70;156030.25;4932839;29;20863;-77
2023/05/09 07:24:19;;;;;;;20.40;17.40;;;;;;;18.21;88.87;156043.28;4948577;28;20472;-77
2023/05/09 07:26:45;;;;;;;19.37;16.83;;;;;;;18.39;89.48;156088.88;4943668;29;20463;-77
2023/05/09 07:29:12;;;;;;;20.10;17.93;;;;;;;18.66;86.95;156158.00;4949803;28;20759;-76
2023/05/09 07:31:40;;;;;;;19.30;16.60;;;;;;;18.90;85.95;156220.53;4943217;29;20452;-76
2023/05/09 07:34:07;;;;;;;20.30;17.67;;;;;;;18.99;83.62;156243.97;4922535;29;20994;-76
2023/05/09 07:36:33;;;;;;;20.70;18.50;;;;;;;19.13;84.03;156279.16;4943730;29;20483;-76
2023/05/09 07:39:00;;;;;;;20.83;16.60;;;;;;;19.29;82.71;156322.16;4933887;29;20550;-76
2023/05/09 07:41:27;;;;;;;22.40;17.40;;;;;;;19.11;80.90;156273.94;4943826;28;20482;-76
2023/05/09 07:43:53;;;;;;;19.53;17.23;;;;;;;19.21;82.16;156300.00;4935738;29;20454;-76
2023/05/09 07:46:20;;;;;;;21.67;18.70;;;;;;;19.02;82.66;156251.78;4945845;29;20792;-76
2023/05/09 07:48:48;;;;;;;21.07;18.87;;;;;;;19.01;85.31;156249.16;4933626;29;20459;-77
2023/05/09 07:51:15;;;;;;;20.57;18.37;;;;;;;18.98;84.23;156241.38;4939427;29;20507;-76
2023/05/09 07:53:41;;;;;;;20.40;18.20;;;;;;;18.93;82.94;156227.03;4945976;29;20510;-76
2023/05/09 07:56:08;;;;;;;20.67;17.87;;;;;;;18.96;85.85;156236.13;4936122;29;20957;-76
2023/05/09 07:58:34;;;;;;;24.83;19.27;;;;;;;19.13;84.20;156280.47;4942233;29;20486;-76
2023/05/09 08:01:01;;;;;;;19.13;17.17;;;;;;;19.17;83.16;156289.53;4952242;29;20451;-76
2023/05/09 08:03:27;;;;;;;19.77;17.67;;;;;;;19.25;84.04;156311.72;4930891;29;20467;-76
2023/05/09 08:05:55;;;;;;;20.50;15.47;;;;;;;19.36;82.94;156339.09;4936919;28;20447;-77
2023/05/09 08:08:22;;;;;;;19.07;16.30;;;;;;;19.52;82.29;156379.53;4944616;28;20463;-77
2023/05/09 08:10:48;;;;;;;18.67;16.67;;;;;;;19.29;80.50;156322.16;4965488;28;20841;-76
2023/05/09 08:13:15;;;;;;;19.67;16.30;;;;;;;19.09;82.38;156268.75;4953157;28;21016;-77
2023/05/09 08:15:42;;;;;;;18.90;16.23;;;;;;;19.16;83.71;156288.28;4965809;28;20537;-77
2023/05/09 08:18:08;;;;;;;20.70;17.17;;;;;;;19.34;82.49;156335.19;4966785;28;20451;-77
2023/05/09 08:20:35;;;;;;;18.50;15.10;;;;;;;19.43;81.17;156357.41;4962176;28;20458;-77
2023/05/09 08:23:03;;;;;;;18.00;16.20;;;;;;;19.14;80.81;156283.03;4956288;28;20471;-77
2023/05/09 08:25:30;;;;;;;17.97;15.47;;;;;;;19.18;82.17;156293.50;4951904;29;20447;-77
2023/05/09 08:27:56;;;;;;;16.97;15.23;;;;;;;19.23;81.04;156306.53;4948663;28;20977;-77
2023/05/09 08:30:23;;;;;;;20.87;16.00;;;;;;;19.14;82.49;156283.03;4956366;28;20530;-76
2023/05/09 08:32:49;;;;;;;19.40;15.20;;;;;;;19.19;82.27;156296.13;4968649;28;20491;-77
2023/05/09 08:35:16;;;;;;;18.30;16.30;;;;;;;19.34;82.03;156335.19;4969246;28;20462;-77
2023/05/09 08:37:43;;;;;;;16.80;15.00;;;;;;;19.58;81.51;156395.19;4969959;28;20766;-77
2023/05/09 08:40:11;;;;;;;19.90;15.93;;;;;;;19.77;81.07;156444.75;4962060;28;20584;-77
2023/05/09 08:42:38;;;;;;;20.60;16.07;;;;;;;19.85;80.94;156465.63;4952786;29;20452;-76
2023/05/09 08:45:10;;;;;;;18.90;17.03;;;;;;;19.89;80.63;156476.03;4945907;28;21048;-76
2023/05/09 08:47:38;;;;;;;20.30;18.20;;;;;;;20.00;81.74;156504.72;4925792;29;20447;-76
2023/05/09 08:50:06;;;;;;;18.87;16.87;;;;;;;19.78;82.00;156447.31;4952781;28;20444;-76
2023/05/09 08:52:33;;;;;;;20.30;16.40;;;;;;;19.82;83.67;156457.78;4964112;28;20458;-76
2023/05/09 08:55:00;;;;;;;17.57;15.40;;;;;;;20.10;87.03;156530.78;4969883;28;20868;-76
2023/05/09 08:57:28;;;;;;;19.20;16.43;;;;;;;20.19;85.06;156552.97;4963667;28;20989;-76
2023/05/09 08:59:55;;;;;;;20.80;16.73;;;;;;;20.17;81.51;156549.06;4956860;28;20860;-76
2023/05/09 09:02:21;;;;;;;18.70;16.63;;;;;;;20.24;80.29;156567.38;4967709;28;20464;-76
2023/05/09 09:04:48;;;;;;;18.60;16.70;;;;;;;20.38;79.14;156602.59;4944049;28;20464;-77
2023/05/09 09:07:15;;;;;;;20.17;17.43;;;;;;;20.41;78.90;156610.44;4969840;28;20529;-76
2023/05/09 09:09:44;;;;;;;19.07;17.07;;;;;;;20.05;77.15;156519.06;4945893;29;20483;-76
2023/05/09 09:12:12;;;;;;;16.10;14.40;;;;;;;19.97;80.02;156496.88;4933974;29;20471;-76
2023/05/09 09:14:43;;;;;;;15.07;13.57;;;;;;;20.05;84.33;156519.06;4933907;29;21005;-77
2023/05/09 09:17:11;;;;;;;16.50;14.27;;;;;;;20.13;79.09;156538.63;4935734;29;20475;-77
2023/05/09 09:19:40;;;;;;;16.90;15.20;;;;;;;20.10;78.44;156530.78;4951162;29;20462;-76
2023/05/09 09:22:08;;;;;;;18.40;16.50;;;;;;;19.97;77.79;156498.19;4949699;29;20475;-76
2023/05/09 09:24:35;;;;;;;16.83;15.10;;;;;;;19.93;80.06;156487.78;4916259;29;20496;-76
2023/05/09 09:27:06;;;;;;;16.40;14.70;;;;;;;19.83;79.03;156461.66;4940345;28;20813;-76
2023/05/09 09:29:34;;;;;;;15.57;13.97;;;;;;;19.80;78.24;156453.84;4957496;28;20459;-76
2023/05/09 09:32:05;;;;;;;16.20;14.37;;;;;;;19.71;78.02;156430.41;4929877;29;20468;-76
2023/05/09 09:34:31;;;;;;;15.70;13.50;;;;;;;19.59;79.72;156399.09;4934162;29;20475;-76
2023/05/09 09:36:58;;;;;;;15.10;13.60;;;;;;;19.62;81.72;156406.91;4951847;28;20483;-77
2023/05/09 09:39:25;;;;;;;17.93;15.33;;;;;;;19.90;80.46;156478.66;4936846;29;20460;-77
2023/05/09 09:41:51;;;;;;;17.13;15.33;;;;;;;20.06;81.56;156520.38;4944133;29;20869;-77
2023/05/09 09:44:19;;;;;;;16.30;14.60;;;;;;;20.20;80.04;156555.59;4934110;29;20455;-76
2023/05/09 09:46:49;;;;;;;18.53;16.37;;;;;;;20.26;79.83;156572.56;4951547;29;20456;-77
2023/05/09 09:49:18;;;;;;;16.33;13.40;;;;;;;20.38;80.13;156603.91;4933355;29;20902;-77
2023/05/09 09:51:44;;;;;;;15.73;14.13;;;;;;;20.42;77.66;156614.31;4955343;28;20455;-76
2023/05/09 09:54:12;;;;;;;16.70;14.90;;;;;;;20.13;78.07;156537.31;4934396;29;20856;-76
2023/05/09 09:56:39;;;;;;;16.60;14.57;;;;;;;20.08;79.09;156525.59;4935940;29;20487;-76
2023/05/09 09:59:11;;;;;;;17.03;15.20;;;;;;;20.14;79.57;156541.25;4933760;29;20820;-76
2023/05/09 10:01:54;;;;;;;16.60;14.90;;;;;;;20.26;77.90;156571.25;4949693;29;20550;-76
2023/05/09 10:04:22;;;;;;;15.70;14.00;;;;;;;20.24;78.97;156567.38;4949793;29;20458;-76
2023/05/09 10:06:53;;;;;;;15.67;13.63;;;;;;;20.38;80.34;156603.91;4957608;28;21049;-76
2023/05/09 10:09:21;;;;;;;18.17;14.77;;;;;;;20.49;78.02;156631.28;4934658;28;20483;-76
2023/05/09 10:11:49;;;;;;;16.90;13.97;;;;;;;20.57;78.29;156653.44;4931290;29;20460;-76
2023/05/09 10:14:16;;;;;;;15.57;14.00;;;;;;;20.70;81.38;156684.78;4933344;29;20480;-76
2023/05/09 10:16:43;;;;;;;18.53;15.70;;;;;;;20.83;77.56;156718.69;4931120;29;20503;-76
2023/05/09 10:19:10;;;;;;;17.33;15.10;;;;;;;20.88;73.67;156731.75;4944903;29;20468;-76
2023/05/09 10:21:39;;;;;;;15.23;13.67;;;;;;;20.69;76.31;156682.16;4941105;29;20466;-76
2023/05/09 10:24:07;;;;;;;17.67;13.80;;;;;;;20.63;75.17;156669.09;4947103;29;20450;-76
2023/05/09 10:26:38;;;;;;;16.10;14.40;;;;;;;20.37;76.82;156599.97;4946104;29;20546;-77
2023/05/09 10:29:08;;;;;;;15.50;13.90;;;;;;;20.34;78.86;156593.44;4933873;29;20451;-77
2023/05/09 10:31:37;;;;;;;15.27;13.67;;;;;;;20.29;75.58;156580.41;4951122;29;20436;-77
2023/05/09 10:34:06;;;;;;;17.17;14.57;;;;;;;20.25;78.49;156570.00;4926973;29;20974;-77
2023/05/09 10:36:32;;;;;;;18.10;16.17;;;;;;;20.00;79.31;156504.72;4918037;29;20997;-77
2023/05/09 10:39:01;;;;;;;17.23;15.23;;;;;;;20.00;80.20;156506.03;4935741;29;20456;-77
2023/05/09 10:41:27;;;;;;;18.50;16.60;;;;;;;20.02;79.96;156509.91;4944108;29;20451;-77
2023/05/09 10:43:56;;;;;;;17.70;15.10;;;;;;;20.02;80.73;156509.91;4926971;29;20479;-77
2023/05/09 10:46:22;;;;;;;19.80;14.40;;;;;;;20.08;79.92;156524.25;4941125;29;20451;-77
2023/05/09 10:48:49;;;;;;;16.33;14.63;;;;;;;20.03;80.03;156512.53;4929275;29;20436;-77
2023/05/09 10:51:17;;;;;;;15.00;13.40;;;;;;;20.07;82.57;156522.94;4942014;28;20479;-77
2023/05/09 10:53:45;;;;;;;14.90;13.10;;;;;;;20.30;87.12;156583.03;4948344;29;20863;-77
2023/05/09 10:56:25;;;;;;;16.17;12.93;;;;;;;20.44;80.78;156619.53;4946993;29;20490;-77
2023/05/09 10:58:51;;;;;;;14.97;13.37;;;;;;;20.59;77.77;156658.69;4938665;29;20452;-77
2023/05/09 11:01:29;;;;;;;13.97;12.33;;;;;;;20.54;76.96;156645.59;4947562;29;20474;-77
2023/05/09 11:03:57;;;;;;;13.07;11.60;;;;;;;20.50;77.37;156633.88;4947152;29;20560;-77
2023/05/09 11:06:41;;;;;;;13.40;11.33;;;;;;;20.48;75.34;156629.97;4937252;29;20452;-77
2023/05/09 11:09:26;;;;;;;12.47;10.77;;;;;;;20.32;76.05;156588.25;4940003;29;20492;-77